Time;durP1;ratioP1;P1;durP2;ratioP2;P2;SDS_P1;SDS_P2;PMS_P1;PMS_P2;Temp;Humidity;BMP_temperature;BMP_pressure;BME280_temperature;BME280_humidity;BME280_pressure;Samples;Min_cycle;Max_cycle;Signal;HPM_P1;HPM_P2
2021/12/21 00:00:17;;;;;;;2.60;2.40;;;1.90;76.60;;;;;;5073469;28;20031;-56
2021/12/21 00:02:45;;;;;;;2.60;2.40;;;1.80;76.30;;;;;;5074341;28;20031;-57
2021/12/21 00:05:19;;;;;;;2.78;2.40;;;1.80;76.60;;;;;;5083080;28;20033;-55
2021/12/21 00:07:47;;;;;;;2.47;2.28;;;1.80;76.60;;;;;;5077855;28;20032;-55
2021/12/21 00:10:13;;;;;;;2.97;2.67;;;1.80;76.30;;;;;;5083664;28;20028;-56
2021/12/21 00:12:48;;;;;;;2.75;2.55;;;1.80;76.30;;;;;;5074834;28;20035;-56
2021/12/21 00:15:32;;;;;;;2.60;2.40;;;1.80;76.30;;;;;;5080291;28;20035;-57
2021/12/21 00:18:14;;;;;;;2.60;2.40;;;1.80;76.30;;;;;;5072848;28;20070;-57
2021/12/21 00:25:43;;;;;;;2.75;2.55;;;1.70;75.90;;;;;;5084541;28;20115;-57
2021/12/21 00:28:09;;;;;;;2.60;2.40;;;1.70;75.90;;;;;;5087676;28;20048;-55
2021/12/21 00:30:34;;;;;;;3.45;2.63;;;1.70;75.70;;;;;;5084508;28;20437;-54
2021/12/21 00:33:00;;;;;;;2.78;2.58;;;1.70;75.70;;;;;;5086244;28;20499;-57
2021/12/21 00:35:26;;;;;;;2.90;2.60;;;1.70;75.60;;;;;;5076738;28;20392;-55
2021/12/21 00:37:52;;;;;;;2.60;2.40;;;1.60;75.50;;;;;;5076874;28;20047;-57
2021/12/21 00:40:18;;;;;;;2.45;2.25;;;1.60;75.20;;;;;;5089266;28;20136;-56
2021/12/21 00:42:44;;;;;;;2.65;2.45;;;1.60;75.30;;;;;;5077487;28;20033;-55
2021/12/21 00:45:10;;;;;;;2.80;2.50;;;1.60;75.30;;;;;;5087236;28;20021;-55
2021/12/21 00:47:40;;;;;;;2.60;2.40;;;1.60;75.10;;;;;;5080717;28;20040;-56
2021/12/21 00:50:08;;;;;;;2.50;2.30;;;1.60;75.10;;;;;;5076918;28;20465;-55
2021/12/21 00:52:34;;;;;;;2.60;2.40;;;1.50;74.70;;;;;;5076823;28;20388;-53
2021/12/21 00:55:00;;;;;;;2.72;2.53;;;1.50;74.70;;;;;;5087830;28;20023;-58
2021/12/21 00:57:25;;;;;;;2.80;2.60;;;1.50;74.50;;;;;;5078368;28;20017;-56
2021/12/21 00:59:51;;;;;;;2.75;2.53;;;1.50;74.30;;;;;;5076576;28;20029;-56
2021/12/21 01:02:17;;;;;;;2.50;2.30;;;1.50;74.30;;;;;;5080865;28;20024;-58
2021/12/21 01:04:47;;;;;;;2.80;2.60;;;1.50;74.30;;;;;;5092539;28;20040;-57
2021/12/21 01:17:51;;;;;;;2.50;2.30;;;1.40;74.00;;;;;;5086254;28;20034;-57
2021/12/21 01:23:50;;;;;;;2.70;2.50;;;1.30;74.00;;;;;;5060766;28;20496;-56
2021/12/21 01:26:35;;;;;;;2.70;2.50;;;1.30;74.20;;;;;;5069421;28;20032;-57
2021/12/21 01:29:22;;;;;;;3.20;2.90;;;1.30;74.00;;;;;;5076059;28;20035;-56
2021/12/21 01:34:31;;;;;;;;;;;1.30;74.60;;;;;;5085405;28;20043;-54
2021/12/21 01:37:04;;;;;;;4.05;3.10;;;1.20;74.50;;;;;;5085308;28;19908;-57
2021/12/21 01:42:27;;;;;;;3.47;3.17;;;1.20;74.70;;;;;;5084561;28;20063;-54
2021/12/21 01:50:10;;;;;;;3.92;3.47;;;1.20;75.10;;;;;;5091346;28;20142;-54
2021/12/21 01:52:35;;;;;;;3.85;3.45;;;1.20;75.00;;;;;;5079257;28;20108;-57
2021/12/21 01:55:01;;;;;;;3.88;3.47;;;1.10;74.80;;;;;;5093895;28;20032;-56
2021/12/21 01:57:26;;;;;;;3.67;3.38;;;1.10;74.80;;;;;;5095529;28;20032;-55
2021/12/21 01:59:52;;;;;;;3.97;3.58;;;1.10;74.90;;;;;;5094511;28;20086;-57
2021/12/21 02:02:20;;;;;;;4.88;3.72;;;1.10;74.90;;;;;;5089406;28;20020;-56
2021/12/21 02:04:46;;;;;;;3.92;3.50;;;1.10;75.00;;;;;;5078059;28;20035;-56
2021/12/21 02:07:12;;;;;;;3.75;3.42;;;1.10;75.20;;;;;;5090509;28;20063;-57
2021/12/21 02:09:38;;;;;;;4.70;3.70;;;1.10;75.10;;;;;;5085065;28;20032;-52
2021/12/21 02:12:09;;;;;;;4.07;3.35;;;1.00;75.10;;;;;;5085224;28;20029;-54
2021/12/21 02:14:37;;;;;;;4.28;3.53;;;1.00;75.00;;;;;;5091947;28;20074;-52
2021/12/21 02:20:17;;;;;;;4.13;3.53;;;1.00;75.10;;;;;;5079190;28;20095;-57
2021/12/21 02:22:54;;;;;;;3.50;3.20;;;1.00;75.20;;;;;;5090498;28;20055;-57
2021/12/21 02:30:30;;;;;;;4.40;4.00;;;0.90;75.40;;;;;;5090513;28;20075;-57
2021/12/21 02:32:56;;;;;;;3.70;3.30;;;0.90;75.30;;;;;;5095131;28;20036;-56
2021/12/21 02:35:21;;;;;;;3.45;3.10;;;0.90;75.30;;;;;;5092676;28;20034;-54
2021/12/21 02:37:47;;;;;;;4.80;3.80;;;0.80;75.10;;;;;;5092278;28;20028;-56
2021/12/21 02:40:13;;;;;;;3.72;3.33;;;0.80;75.30;;;;;;5094566;28;20025;-55
2021/12/21 02:42:38;;;;;;;3.90;3.50;;;0.80;75.40;;;;;;5089964;28;20033;-53
2021/12/21 02:45:06;;;;;;;3.85;3.20;;;0.80;75.40;;;;;;5081385;28;20104;-55
2021/12/21 02:47:31;;;;;;;3.55;3.25;;;0.80;75.50;;;;;;5090449;28;20085;-56
2021/12/21 02:49:59;;;;;;;5.05;3.75;;;0.80;75.50;;;;;;5094607;28;20016;-55
2021/12/21 02:52:25;;;;;;;4.18;3.63;;;0.80;75.50;;;;;;5092781;28;20020;-56
2021/12/21 02:54:51;;;;;;;3.63;3.33;;;0.70;75.40;;;;;;5087180;28;20046;-56
2021/12/21 02:57:17;;;;;;;4.05;3.65;;;0.70;75.60;;;;;;5073881;28;20442;-55
2021/12/21 02:59:42;;;;;;;4.15;3.58;;;0.70;75.60;;;;;;5081428;28;20504;-54
2021/12/21 03:02:08;;;;;;;4.15;3.70;;;0.70;75.90;;;;;;5082982;28;20066;-53
2021/12/21 03:04:34;;;;;;;4.15;3.40;;;0.70;75.80;;;;;;5085978;28;20020;-54
2021/12/21 03:12:09;;;;;;;3.33;3.00;;;0.70;75.80;;;;;;5078395;28;20028;-52
2021/12/21 03:14:35;;;;;;;3.55;3.25;;;0.60;75.70;;;;;;5093639;28;20020;-54
2021/12/21 03:17:01;;;;;;;3.85;3.47;;;0.70;75.90;;;;;;5085882;28;20448;-56
2021/12/21 03:19:26;;;;;;;3.60;3.30;;;0.60;75.80;;;;;;5074819;28;20021;-54
2021/12/21 03:21:53;;;;;;;4.15;3.20;;;0.60;75.60;;;;;;5090149;28;20035;-57
2021/12/21 03:24:19;;;;;;;3.28;2.97;;;0.60;75.50;;;;;;5076807;28;20534;-57
2021/12/21 03:26:45;;;;;;;2.63;2.42;;;0.60;75.50;;;;;;5081712;28;20067;-56
2021/12/21 03:29:10;;;;;;;2.83;2.63;;;0.60;75.20;;;;;;5091395;28;20024;-54
2021/12/21 03:31:36;;;;;;;2.85;2.65;;;0.60;74.80;;;;;;5087070;28;20427;-57
2021/12/21 03:34:03;;;;;;;2.67;2.47;;;0.50;74.50;;;;;;5073402;28;20381;-55
2021/12/21 03:36:28;;;;;;;2.63;2.20;;;0.50;74.30;;;;;;5075937;28;20025;-57
2021/12/21 03:39:04;;;;;;;2.30;2.20;;;0.40;73.80;;;;;;5085341;28;20345;-55
2021/12/21 03:41:30;;;;;;;2.50;2.40;;;0.30;73.70;;;;;;5094013;28;20383;-53
2021/12/21 03:43:59;;;;;;;2.38;2.17;;;0.30;73.50;;;;;;5088065;28;20103;-55
2021/12/21 03:46:25;;;;;;;2.72;2.50;;;0.20;73.10;;;;;;5075681;28;20033;-55
2021/12/21 03:48:51;;;;;;;2.33;2.22;;;0.20;72.80;;;;;;5073594;28;20036;-54
2021/12/21 03:51:19;;;;;;;2.60;2.40;;;0.10;72.40;;;;;;5074301;28;20021;-53
2021/12/21 03:53:46;;;;;;;2.67;2.45;;;0.10;72.20;;;;;;5075999;28;20456;-54
2021/12/21 03:58:56;;;;;;;2.80;2.60;;;0.00;72.40;;;;;;5073401;28;20116;-54
2021/12/21 04:01:22;;;;;;;2.60;2.40;;;-0.10;72.50;;;;;;5088155;28;20103;-55
2021/12/21 04:03:48;;;;;;;2.30;2.20;;;-0.10;72.50;;;;;;5076391;28;20028;-57
2021/12/21 04:06:14;;;;;;;2.53;2.38;;;-0.20;72.50;;;;;;5073061;28;20389;-55
2021/12/21 04:08:39;;;;;;;2.83;2.55;;;-0.20;72.50;;;;;;5074734;28;20032;-57
2021/12/21 04:11:05;;;;;;;2.60;2.40;;;-0.30;72.60;;;;;;5077900;28;20024;-55
2021/12/21 04:13:31;;;;;;;2.78;2.58;;;-0.30;72.70;;;;;;5076845;28;20028;-57
2021/12/21 04:16:00;;;;;;;3.47;2.53;;;-0.40;72.50;;;;;;5085754;28;20033;-54
2021/12/21 04:18:26;;;;;;;2.60;2.40;;;-0.50;72.30;;;;;;5074969;28;20464;-56
2021/12/21 04:20:52;;;;;;;2.70;2.50;;;-0.50;72.60;;;;;;5081083;28;20029;-55
2021/12/21 04:23:18;;;;;;;2.85;2.65;;;-0.60;72.30;;;;;;5080820;28;20392;-57
2021/12/21 04:25:44;;;;;;;2.40;2.30;;;-0.60;72.60;;;;;;5082521;28;20036;-53
2021/12/21 04:28:11;;;;;;;2.53;2.33;;;-0.60;72.60;;;;;;5076766;28;20027;-54
2021/12/21 04:30:36;;;;;;;3.03;2.50;;;-0.60;72.70;;;;;;5078667;28;20032;-52
2021/12/21 04:33:02;;;;;;;3.38;2.50;;;-0.60;73.10;;;;;;5090723;28;20372;-54
2021/12/21 04:35:28;;;;;;;2.72;2.53;;;-0.60;72.80;;;;;;5082985;28;20055;-56
2021/12/21 04:37:58;;;;;;;2.30;2.20;;;-0.60;72.50;;;;;;5090030;28;20031;-56
2021/12/21 04:40:38;;;;;;;2.60;2.40;;;-0.60;71.70;;;;;;5088622;28;20392;-57
2021/12/21 04:43:04;;;;;;;2.72;2.53;;;-0.60;71.20;;;;;;5084238;28;20414;-57
2021/12/21 04:45:31;;;;;;;2.50;2.30;;;-0.60;71.40;;;;;;5084342;28;20031;-54
2021/12/21 04:47:56;;;;;;;2.35;2.25;;;-0.60;71.10;;;;;;5093019;28;20464;-57
2021/12/21 04:50:22;;;;;;;2.60;2.40;;;-0.60;70.70;;;;;;5092864;28;20024;-54
2021/12/21 04:52:48;;;;;;;2.90;2.55;;;-0.70;70.20;;;;;;5079080;28;20032;-54
2021/12/21 04:55:14;;;;;;;2.50;2.30;;;-0.70;70.00;;;;;;5091701;28;20020;-57
2021/12/21 04:57:41;;;;;;;2.80;2.60;;;-0.80;69.70;;;;;;5073049;28;20035;-54
2021/12/21 05:00:08;;;;;;;2.58;2.38;;;-0.80;69.60;;;;;;5078959;28;20049;-57
2021/12/21 05:02:34;;;;;;;2.38;2.20;;;-0.80;69.70;;;;;;5076267;28;20039;-54
2021/12/21 05:05:00;;;;;;;2.60;2.40;;;-0.80;69.90;;;;;;5072627;28;20457;-53
2021/12/21 05:07:28;;;;;;;2.60;2.40;;;-0.80;70.10;;;;;;5072841;28;20035;-52
2021/12/21 05:09:59;;;;;;;2.42;2.30;;;-0.80;70.10;;;;;;5089146;28;20161;-53
2021/12/21 05:12:25;;;;;;;2.30;2.20;;;-0.80;70.10;;;;;;5072794;28;20028;-57
2021/12/21 05:14:51;;;;;;;2.30;2.20;;;-0.70;69.80;;;;;;5084201;28;20042;-54
2021/12/21 05:17:16;;;;;;;3.00;2.70;;;-0.70;69.80;;;;;;5083362;28;20032;-54
2021/12/21 05:19:42;;;;;;;2.42;2.22;;;-0.70;69.70;;;;;;5080794;28;20422;-57
2021/12/21 05:22:08;;;;;;;2.30;2.20;;;-0.70;69.40;;;;;;5080440;28;20044;-57
2021/12/21 05:24:33;;;;;;;2.60;2.40;;;-0.70;69.40;;;;;;5085001;28;20052;-54
2021/12/21 05:26:59;;;;;;;2.72;2.53;;;-0.70;69.30;;;;;;5080339;28;20035;-53
2021/12/21 05:29:26;;;;;;;2.40;2.20;;;-0.70;69.30;;;;;;5084241;28;20054;-56
2021/12/21 05:31:52;;;;;;;2.67;2.30;;;-0.70;69.30;;;;;;5085826;28;20038;-53
2021/12/21 05:34:18;;;;;;;2.60;2.40;;;-0.80;69.00;;;;;;5089389;28;20100;-57
2021/12/21 05:36:43;;;;;;;2.42;2.33;;;-0.80;69.10;;;;;;5076642;28;20086;-56
2021/12/21 05:39:18;;;;;;;2.60;2.40;;;-0.80;69.30;;;;;;5085419;28;20077;-56
2021/12/21 05:41:50;;;;;;;2.60;2.40;;;-0.80;69.40;;;;;;5085085;28;20064;-57
2021/12/21 05:44:18;;;;;;;2.40;2.30;;;-0.80;69.30;;;;;;5082841;28;20048;-56
2021/12/21 05:46:44;;;;;;;2.63;2.42;;;-0.80;69.80;;;;;;5089291;28;20116;-57
2021/12/21 05:49:09;;;;;;;2.50;2.30;;;-0.80;69.90;;;;;;5080722;28;20107;-56
2021/12/21 05:51:35;;;;;;;2.60;2.40;;;-0.80;69.90;;;;;;5094264;28;20059;-54
2021/12/21 05:54:01;;;;;;;2.40;2.20;;;-0.80;69.90;;;;;;5077902;28;20040;-54
2021/12/21 05:56:27;;;;;;;2.53;2.33;;;-0.80;69.70;;;;;;5083107;28;20029;-55
2021/12/21 05:58:52;;;;;;;2.75;2.55;;;-0.70;69.60;;;;;;5088814;28;20106;-54
2021/12/21 06:01:18;;;;;;;2.83;2.50;;;-0.70;69.90;;;;;;5091569;28;20035;-56
2021/12/21 06:03:44;;;;;;;2.20;2.10;;;-0.70;70.00;;;;;;5079790;28;20802;-57
2021/12/21 06:06:15;;;;;;;2.40;2.30;;;-0.70;70.00;;;;;;5093842;28;20032;-57
2021/12/21 06:08:43;;;;;;;2.60;2.40;;;-0.70;70.10;;;;;;5082987;28;20527;-55
2021/12/21 06:11:09;;;;;;;2.75;2.47;;;-0.70;70.10;;;;;;5076525;28;20028;-53
2021/12/21 06:13:59;;;;;;;2.63;2.42;;;-0.70;70.00;;;;;;5077522;28;20384;-57
2021/12/21 06:22:45;;;;;;;2.80;2.60;;;-0.80;70.40;;;;;;5076285;28;20034;-54
2021/12/21 06:27:00;;;;;;;2.95;2.75;;;-0.80;70.40;;;;;;5077305;28;20081;-56
2021/12/21 06:29:25;;;;;;;2.80;2.60;;;-0.80;70.70;;;;;;5077173;28;20056;-57
2021/12/21 06:31:51;;;;;;;2.75;2.55;;;-0.70;70.80;;;;;;5073110;28;20056;-56
2021/12/21 06:34:17;;;;;;;2.85;2.60;;;-0.70;70.70;;;;;;5077080;28;20052;-56
2021/12/21 06:36:43;;;;;;;2.63;2.42;;;-0.70;70.70;;;;;;5078292;28;20043;-55
2021/12/21 06:39:10;;;;;;;2.83;2.63;;;-0.70;70.90;;;;;;5076112;28;20028;-56
2021/12/21 06:41:36;;;;;;;3.55;2.95;;;-0.70;70.70;;;;;;5078008;28;20020;-54
2021/12/21 06:44:04;;;;;;;3.03;2.83;;;-0.70;70.90;;;;;;5072240;28;20043;-55
2021/12/21 06:46:48;;;;;;;3.30;2.75;;;-0.60;70.90;;;;;;5077089;28;20112;-56
2021/12/21 06:52:00;;;;;;;2.70;2.40;;;-0.60;70.70;;;;;;5078150;28;20036;-56
2021/12/21 06:54:26;;;;;;;2.80;2.60;;;-0.60;70.60;;;;;;5074536;28;20033;-57
2021/12/21 06:56:52;;;;;;;3.05;2.75;;;-0.60;70.60;;;;;;5066855;28;20035;-56
2021/12/21 06:59:18;;;;;;;2.90;2.70;;;-0.60;70.70;;;;;;5071599;28;20037;-55
2021/12/21 07:01:44;;;;;;;2.78;2.45;;;-0.50;70.20;;;;;;5066442;28;20535;-57
2021/12/21 07:04:11;;;;;;;3.03;2.72;;;-0.50;69.70;;;;;;5071581;28;20218;-54
2021/12/21 07:06:40;;;;;;;2.90;2.60;;;-0.50;69.80;;;;;;5077847;28;20082;-57
2021/12/21 07:09:59;;;;;;;2.75;2.53;;;-0.50;69.70;;;;;;5075113;28;20384;-56
2021/12/21 07:20:09;;;;;;;3.08;2.78;;;-0.60;69.90;;;;;;5060514;28;20085;-57
2021/12/21 07:22:35;;;;;;;3.10;2.80;;;-0.60;69.80;;;;;;5060166;28;20032;-57
2021/12/21 07:25:00;;;;;;;3.03;2.72;;;-0.60;70.00;;;;;;5060771;28;20792;-57
2021/12/21 07:27:26;;;;;;;2.83;2.60;;;-0.60;70.00;;;;;;5065131;28;20032;-57
2021/12/21 07:29:52;;;;;;;2.90;2.60;;;-0.60;69.80;;;;;;5066444;28;20093;-55
2021/12/21 07:32:18;;;;;;;2.70;2.50;;;-0.60;69.60;;;;;;5060937;28;20036;-57
2021/12/21 07:34:43;;;;;;;2.58;2.38;;;-0.60;69.30;;;;;;5068826;28;20023;-56
2021/12/21 07:37:10;;;;;;;2.70;2.50;;;-0.60;69.20;;;;;;5074228;28;20039;-55
2021/12/21 07:39:36;;;;;;;2.88;2.35;;;-0.60;68.70;;;;;;5073800;28;20043;-54
2021/12/21 07:42:04;;;;;;;2.47;2.28;;;-0.70;68.70;;;;;;5069944;28;20480;-57
2021/12/21 07:44:30;;;;;;;2.88;2.50;;;-0.70;68.70;;;;;;5065188;28;20472;-57
2021/12/21 07:46:55;;;;;;;2.95;2.53;;;-0.70;69.20;;;;;;5065336;28;20031;-56
2021/12/21 07:49:21;;;;;;;2.60;2.40;;;-0.70;68.90;;;;;;5062802;28;20037;-57
2021/12/21 07:51:48;;;;;;;2.75;2.55;;;-0.70;68.90;;;;;;5065432;28;20035;-58
2021/12/21 07:54:17;;;;;;;2.83;2.55;;;-0.70;69.00;;;;;;5064721;28;20028;-57
2021/12/21 07:56:44;;;;;;;2.63;2.42;;;-0.70;69.30;;;;;;5059707;28;20074;-58
2021/12/21 07:59:11;;;;;;;3.85;2.63;;;-0.70;69.50;;;;;;5060277;28;20740;-57
2021/12/21 08:01:40;;;;;;;2.75;2.50;;;-0.60;69.10;;;;;;5061022;28;20028;-57
2021/12/21 08:04:09;;;;;;;3.58;2.72;;;-0.60;69.00;;;;;;5070220;28;20103;-56
2021/12/21 08:06:36;;;;;;;3.03;2.72;;;-0.60;69.20;;;;;;5062777;28;20035;-57
2021/12/21 08:09:04;;;;;;;2.80;2.60;;;-0.60;69.00;;;;;;5052781;28;20036;-56
2021/12/21 08:14:03;;;;;;;2.65;2.45;;;-0.60;68.80;;;;;;5060788;28;20036;-57
2021/12/21 08:16:29;;;;;;;2.65;2.45;;;-0.60;68.50;;;;;;5063749;28;20031;-56
2021/12/21 08:18:55;;;;;;;3.05;2.70;;;-0.60;67.70;;;;;;5052081;28;20024;-58
2021/12/21 08:21:23;;;;;;;2.85;2.53;;;-0.60;67.30;;;;;;5060411;28;20118;-58
2021/12/21 08:23:49;;;;;;;2.90;2.50;;;-0.70;67.30;;;;;;5053377;28;20071;-57
2021/12/21 08:26:15;;;;;;;2.60;2.40;;;-0.70;66.90;;;;;;5052704;28;20032;-57
2021/12/21 08:28:40;;;;;;;2.50;2.30;;;-0.70;67.00;;;;;;5057103;28;20156;-57
2021/12/21 08:31:10;;;;;;;2.60;2.40;;;-0.70;66.70;;;;;;5059815;28;20037;-57
2021/12/21 08:33:36;;;;;;;3.10;2.45;;;-0.70;66.60;;;;;;5055691;28;20032;-56
2021/12/21 08:36:03;;;;;;;2.80;2.60;;;-0.70;66.60;;;;;;5068511;28;20400;-56
2021/12/21 08:38:31;;;;;;;2.55;2.35;;;-0.70;66.30;;;;;;5064654;28;20036;-57
2021/12/21 08:40:58;;;;;;;2.78;2.50;;;-0.70;65.80;;;;;;5058472;28;20063;-56
2021/12/21 08:43:28;;;;;;;3.13;2.92;;;-0.70;65.80;;;;;;5048493;28;20492;-57
2021/12/21 08:45:55;;;;;;;3.13;2.63;;;-0.70;65.70;;;;;;5062371;28;20024;-57
2021/12/21 08:48:21;;;;;;;2.53;2.33;;;-0.70;65.60;;;;;;5066516;28;20097;-56
2021/12/21 08:50:50;;;;;;;2.70;2.50;;;-0.80;65.20;;;;;;5060180;28;20046;-57
2021/12/21 08:53:16;;;;;;;2.47;2.38;;;-0.80;65.20;;;;;;5058066;28;20416;-57
2021/12/21 08:55:43;;;;;;;2.80;2.50;;;-0.80;65.70;;;;;;5064500;28;20025;-57
2021/12/21 08:58:10;;;;;;;3.15;2.85;;;-0.80;65.20;;;;;;5059023;28;20074;-58
2021/12/21 09:00:36;;;;;;;2.70;2.50;;;-0.80;65.20;;;;;;5058928;28;20035;-56
2021/12/21 09:03:04;;;;;;;3.92;2.70;;;-0.90;65.00;;;;;;5059071;28;20051;-58
2021/12/21 09:05:31;;;;;;;2.70;2.45;;;-0.90;65.00;;;;;;5064180;28;20028;-56
2021/12/21 09:07:58;;;;;;;3.08;2.60;;;-0.90;65.40;;;;;;5065444;28;20622;-58
2021/12/21 09:10:24;;;;;;;2.97;2.50;;;-0.90;65.60;;;;;;5067326;28;20476;-58
2021/12/21 09:12:51;;;;;;;2.88;2.67;;;-0.90;65.70;;;;;;5070624;28;20032;-56
2021/12/21 09:15:18;;;;;;;3.13;2.65;;;-0.90;65.70;;;;;;5069566;28;20086;-56
2021/12/21 09:17:47;;;;;;;2.83;2.63;;;-0.90;66.10;;;;;;5065673;28;20032;-56
2021/12/21 09:20:14;;;;;;;2.97;2.60;;;-0.90;65.80;;;;;;5064020;28;20455;-56
2021/12/21 09:22:41;;;;;;;2.67;2.47;;;-0.90;65.90;;;;;;5060456;28;20044;-54
2021/12/21 09:25:08;;;;;;;2.72;2.53;;;-0.90;66.20;;;;;;5058876;28;20060;-55
2021/12/21 09:27:34;;;;;;;2.72;2.53;;;-0.90;66.40;;;;;;5063389;28;20028;-57
2021/12/21 09:30:00;;;;;;;3.05;2.78;;;-0.90;66.50;;;;;;5062360;28;20025;-57
2021/12/21 09:32:27;;;;;;;2.60;2.40;;;-0.90;66.70;;;;;;5057051;28;20059;-56
2021/12/21 09:34:52;;;;;;;2.95;2.65;;;-0.90;66.80;;;;;;5060800;28;20028;-58
2021/12/21 09:37:20;;;;;;;3.10;2.85;;;-0.90;66.80;;;;;;5061590;28;20500;-57
2021/12/21 09:39:50;;;;;;;2.78;2.58;;;-1.00;66.90;;;;;;5067020;28;20541;-54
2021/12/21 09:42:19;;;;;;;4.60;3.50;;;-1.00;67.10;;;;;;5058049;28;20036;-56
2021/12/21 09:44:45;;;;;;;2.90;2.70;;;-1.00;67.20;;;;;;5057100;28;20028;-56
2021/12/21 09:47:12;;;;;;;3.08;2.78;;;-1.00;67.70;;;;;;5067666;28;20123;-56
2021/12/21 09:49:39;;;;;;;5.43;2.97;;;-1.00;67.90;;;;;;5065815;28;20047;-57
2021/12/21 09:52:06;;;;;;;2.80;2.58;;;-1.00;67.60;;;;;;5069427;28;20017;-56
2021/12/21 09:54:34;;;;;;;2.92;2.60;;;-1.00;67.50;;;;;;5065750;28;20026;-57
2021/12/21 09:57:00;;;;;;;3.25;2.60;;;-1.00;67.60;;;;;;5065688;28;20032;-58
2021/12/21 09:59:26;;;;;;;3.88;2.60;;;-1.00;67.90;;;;;;5065673;28;20031;-57
2021/12/21 10:01:55;;;;;;;3.00;2.70;;;-1.10;67.80;;;;;;5059478;28;20032;-54
2021/12/21 10:04:21;;;;;;;3.58;2.78;;;-1.10;67.90;;;;;;5061412;28;20169;-58
2021/12/21 10:06:49;;;;;;;2.85;2.65;;;-1.10;67.90;;;;;;5060499;28;24507;-59
2021/12/21 10:09:20;;;;;;;3.72;2.80;;;-1.10;67.90;;;;;;5063531;28;20032;-58
2021/12/21 10:11:49;;;;;;;3.58;3.28;;;-1.10;67.90;;;;;;5059939;28;20031;-56
2021/12/21 10:14:16;;;;;;;3.22;2.90;;;-1.10;68.40;;;;;;5065564;28;20101;-55
2021/12/21 10:16:42;;;;;;;4.05;2.75;;;-1.10;68.50;;;;;;5064949;28;20031;-57
2021/12/21 10:19:19;;;;;;;3.72;3.42;;;-1.10;68.60;;;;;;5066443;28;20059;-56
2021/12/21 10:21:45;;;;;;;2.90;2.70;;;-1.10;68.10;;;;;;5060016;28;20759;-57
2021/12/21 10:24:25;;;;;;;3.33;3.03;;;-1.10;68.40;;;;;;5060345;28;20190;-57
2021/12/21 10:27:10;;;;;;;3.03;2.83;;;-1.10;67.90;;;;;;5065567;28;20036;-57
2021/12/21 10:29:48;;;;;;;5.32;2.90;;;-1.10;67.80;;;;;;5062139;28;20143;-57
2021/12/21 10:32:22;;;;;;;2.92;2.72;;;-1.10;67.40;;;;;;5060388;28;20722;-55
2021/12/21 10:35:06;;;;;;;3.30;3.00;;;-1.00;67.20;;;;;;5065775;28;20115;-58
2021/12/21 10:37:35;;;;;;;3.28;2.97;;;-1.10;66.10;;;;;;5061955;28;20044;-57
2021/12/21 10:40:24;;;;;;;3.53;3.00;;;-1.20;65.60;;;;;;5067257;28;20036;-55
2021/12/21 10:42:50;;;;;;;3.58;2.60;;;-1.20;65.60;;;;;;5067200;28;20755;-57
2021/12/21 10:45:27;;;;;;;2.60;2.40;;;-1.20;65.90;;;;;;5066066;28;20033;-57
2021/12/21 10:47:53;;;;;;;3.05;2.60;;;-1.20;65.40;;;;;;5064144;28;20036;-56
2021/12/21 10:50:19;;;;;;;2.83;2.60;;;-1.20;64.60;;;;;;5061061;28;20745;-58
2021/12/21 10:52:51;;;;;;;2.58;2.33;;;-1.30;63.60;;;;;;5063912;28;20028;-56
2021/12/21 10:55:24;;;;;;;;;;;-1.40;63.10;;;;;;5067448;28;20034;-56
2021/12/21 10:58:19;;;;;;;2.78;2.58;;;-1.50;61.60;;;;;;5049655;28;20394;-57
2021/12/21 11:00:54;;;;;;;2.70;2.50;;;-1.50;62.70;;;;;;5054897;28;20039;-57
2021/12/21 11:03:57;;;;;;;2.42;2.30;;;-1.50;62.40;;;;;;5045992;28;20491;-56
2021/12/21 11:06:32;;;;;;;2.90;2.60;;;-1.50;61.80;;;;;;5055439;28;20151;-56
2021/12/21 11:08:58;;;;;;;2.25;2.15;;;-1.60;61.20;;;;;;5056977;28;20140;-55
2021/12/21 11:11:34;;;;;;;2.47;2.30;;;-1.60;60.70;;;;;;5059044;28;20661;-57
2021/12/21 11:14:04;;;;;;;2.95;2.67;;;-1.60;60.70;;;;;;5056200;28;20020;-57
2021/12/21 11:16:50;;;;;;;3.00;2.75;;;-1.70;60.60;;;;;;5061623;28;20050;-56
2021/12/21 11:19:19;;;;;;;2.67;2.47;;;-1.80;60.30;;;;;;5064908;28;20020;-56
2021/12/21 11:21:46;;;;;;;2.92;2.70;;;-1.80;60.20;;;;;;5072065;28;20112;-56
2021/12/21 11:24:20;;;;;;;2.95;2.67;;;-1.90;60.50;;;;;;5069807;28;20052;-57
2021/12/21 11:26:47;;;;;;;3.47;3.00;;;-2.00;60.80;;;;;;5066394;28;20702;-57
2021/12/21 11:29:16;;;;;;;2.70;2.50;;;-2.00;61.30;;;;;;5071963;28;20052;-57
2021/12/21 11:31:49;;;;;;;2.67;2.47;;;-2.10;60.80;;;;;;5070426;28;20107;-58
2021/12/21 11:34:19;;;;;;;3.13;2.83;;;-2.10;60.90;;;;;;5065964;28;20411;-57
2021/12/21 11:39:33;;;;;;;2.80;2.60;;;-2.20;60.60;;;;;;5067684;28;20051;-56
2021/12/21 11:42:01;;;;;;;2.60;2.40;;;-2.20;60.40;;;;;;5065411;28;20516;-56
2021/12/21 11:44:40;;;;;;;2.60;2.42;;;-2.20;60.30;;;;;;5061714;28;20526;-56
2021/12/21 11:47:09;;;;;;;2.88;2.53;;;-2.20;59.70;;;;;;5061149;28;20140;-57
2021/12/21 11:49:49;;;;;;;3.10;2.60;;;-2.20;59.10;;;;;;5054468;28;20035;-56
2021/12/21 11:52:21;;;;;;;2.67;2.47;;;-2.30;59.10;;;;;;5068735;28;20531;-54
2021/12/21 11:55:03;;;;;;;3.00;2.70;;;-2.30;58.70;;;;;;5064022;28;24719;-55
2021/12/21 11:57:56;;;;;;;2.70;2.50;;;-2.40;58.60;;;;;;5061500;28;20040;-55
2021/12/21 12:00:32;;;;;;;2.80;2.60;;;-2.40;58.50;;;;;;5061778;28;20031;-54
2021/12/21 12:03:10;;;;;;;2.70;2.50;;;-2.50;58.40;;;;;;5058543;28;20032;-56
2021/12/21 12:05:38;;;;;;;2.67;2.40;;;-2.50;58.60;;;;;;5061168;28;20052;-56
2021/12/21 12:08:07;;;;;;;3.92;2.50;;;-2.60;58.40;;;;;;5064352;28;20035;-56
2021/12/21 12:10:37;;;;;;;2.53;2.33;;;-2.60;58.80;;;;;;5053468;28;20032;-56
2021/12/21 12:13:32;;;;;;;2.65;2.45;;;-2.60;58.70;;;;;;5059458;28;20090;-56
2021/12/21 12:16:04;;;;;;;4.18;2.50;;;-2.60;58.90;;;;;;5063744;28;20031;-54
2021/12/21 12:18:43;;;;;;;3.33;2.80;;;-2.70;58.60;;;;;;5066027;28;20035;-54
2021/12/21 12:21:11;;;;;;;3.10;2.80;;;-2.70;58.60;;;;;;5066024;28;20024;-56
2021/12/21 12:23:49;;;;;;;2.78;2.50;;;-2.70;58.70;;;;;;5067783;28;20056;-57
2021/12/21 12:26:26;;;;;;;4.88;3.13;;;-2.80;58.80;;;;;;5063666;28;20077;-56
2021/12/21 12:28:53;;;;;;;3.33;2.58;;;-2.70;59.20;;;;;;5072115;28;20129;-56
2021/12/21 12:31:38;;;;;;;6.10;2.92;;;-2.80;58.80;;;;;;5071139;28;20059;-56
2021/12/21 12:34:04;;;;;;;3.20;2.70;;;-2.80;58.90;;;;;;5065306;28;20077;-57
2021/12/21 12:36:39;;;;;;;3.38;2.88;;;-2.80;59.10;;;;;;5068761;28;20059;-57
2021/12/21 12:39:07;;;;;;;3.78;2.97;;;-2.80;58.80;;;;;;5074859;28;20077;-55
2021/12/21 12:41:44;;;;;;;4.35;2.85;;;-2.90;59.70;;;;;;5070099;28;20114;-56
2021/12/21 12:44:25;;;;;;;11.90;2.97;;;-2.90;59.30;;;;;;5062545;28;20503;-57
2021/12/21 12:46:55;;;;;;;3.03;2.83;;;-3.00;59.20;;;;;;5065279;28;20396;-56
2021/12/21 12:49:23;;;;;;;3.92;3.13;;;-3.10;59.20;;;;;;5072926;28;20043;-56
2021/12/21 12:51:49;;;;;;;3.67;2.90;;;-3.10;59.50;;;;;;5071230;28;20024;-56
2021/12/21 12:54:21;;;;;;;3.28;2.97;;;-3.10;59.70;;;;;;5067641;28;20020;-57
2021/12/21 12:56:48;;;;;;;3.72;3.17;;;-3.10;59.80;;;;;;5057873;28;20671;-56
2021/12/21 12:59:14;;;;;;;3.42;3.10;;;-3.20;59.50;;;;;;5065440;28;20030;-55
2021/12/21 13:01:42;;;;;;;3.70;3.28;;;-3.30;59.50;;;;;;5049756;28;20062;-55
2021/12/21 13:04:11;;;;;;;3.40;3.10;;;-3.30;59.60;;;;;;5062860;28;20059;-56
2021/12/21 13:06:38;;;;;;;3.90;3.08;;;-3.40;59.40;;;;;;5062535;28;20013;-56
2021/12/21 13:09:06;;;;;;;4.25;3.20;;;-3.50;59.30;;;;;;5055810;28;23004;-56
2021/12/21 13:11:34;;;;;;;3.58;3.25;;;-3.60;59.60;;;;;;5065719;28;20039;-57
2021/12/21 13:14:00;;;;;;;3.47;2.90;;;-3.60;59.60;;;;;;5067498;28;20058;-56
2021/12/21 13:16:31;;;;;;;4.50;3.10;;;-3.70;59.80;;;;;;5068696;28;20223;-56
2021/12/21 13:19:10;;;;;;;3.03;2.78;;;-3.70;60.00;;;;;;5067202;28;20334;-54
2021/12/21 13:21:40;;;;;;;5.25;3.13;;;-3.80;60.20;;;;;;5066863;28;20787;-55
2021/12/21 13:24:23;;;;;;;3.00;2.80;;;-3.80;60.10;;;;;;5069426;28;20504;-56
2021/12/21 13:26:55;;;;;;;4.55;3.10;;;-3.90;60.40;;;;;;5059746;28;20090;-56
2021/12/21 13:29:27;;;;;;;3.50;3.08;;;-4.10;60.20;;;;;;5065138;28;20039;-55
2021/12/21 13:31:57;;;;;;;3.30;3.00;;;-4.20;60.60;;;;;;5066548;28;20126;-56
2021/12/21 13:34:25;;;;;;;3.17;2.88;;;-4.20;61.00;;;;;;5068593;28;20036;-56
2021/12/21 13:37:02;;;;;;;4.00;2.90;;;-4.30;61.50;;;;;;5061208;28;20036;-55
2021/12/21 13:39:37;;;;;;;3.22;2.92;;;-4.30;61.90;;;;;;5062930;28;20032;-56
2021/12/21 13:42:04;;;;;;;3.58;3.03;;;-4.40;62.10;;;;;;5065972;28;20042;-55
2021/12/21 13:44:33;;;;;;;3.92;3.00;;;-4.40;62.40;;;;;;5064293;28;20036;-54
2021/12/21 13:47:03;;;;;;;5.75;3.25;;;-4.50;62.70;;;;;;5061656;28;20051;-57
2021/12/21 13:49:29;;;;;;;4.57;3.00;;;-4.50;62.80;;;;;;5073858;28;20036;-55
2021/12/21 13:51:58;;;;;;;3.22;2.92;;;-4.60;63.00;;;;;;5071461;28;20040;-56
2021/12/21 13:54:26;;;;;;;4.57;3.67;;;-4.60;63.00;;;;;;5062097;28;20028;-56
2021/12/21 13:56:53;;;;;;;4.88;3.40;;;-4.70;63.30;;;;;;5063355;28;20119;-55
2021/12/21 13:59:20;;;;;;;6.15;3.40;;;-4.70;63.30;;;;;;5060550;28;20040;-55
2021/12/21 14:01:49;;;;;;;9.80;3.63;;;-4.70;63.30;;;;;;5062710;28;21107;-53
2021/12/21 14:04:24;;;;;;;4.63;3.63;;;-4.80;63.00;;;;;;5065695;28;20041;-55
2021/12/21 14:06:54;;;;;;;3.65;2.90;;;-4.80;63.10;;;;;;5068123;28;20036;-51
2021/12/21 14:09:22;;;;;;;4.05;3.17;;;-4.90;62.80;;;;;;5064906;28;20039;-55